TSC153 SPJC-CYYZ
Flight info
| Callsign | TSC153 |
|---|---|
| Flight time | N/A |
| Altitude | 30000 |
| Route | ATATU UV1 TRU UL780 EVRED/N0445F320 UL780 TBG UM542 SIA UR625 ULDAR/N0445F340 UR625 ENAMO/N0441F330 Y307 ZQA DCT LOUIZ/M074F330 DCT UKOKA/M074F350 DCT JAINS/N0433F340 Y327 CLOWR DCT GARIC/N0436F350 Q129 PYTON DCT WOZEE LINNG3 |
| Aircraft | A21N/M-SDE2E3FGHIRWXY/LB1 |
Departure
| Time | 2026-04-29 15:23 |
|---|---|
| Airport | Jorge Chávez International Airport (SPJC) |
Arrival
| Time | N/A |
|---|---|
| Airport | Toronto Pearson International Airport (CYYZ) |
| Time | Latitude | Longitude | Altitude | Speed | Heading |
|---|---|---|---|---|---|
| 2026-04-29 14:08 | -12.02514 | -77.10867 | 99 ft | 0 kts | 63° |
| 2026-04-29 15:00 | -12.02522 | -77.10883 | 97 ft | 4 kts | 63° |
| 2026-04-29 15:00 | -12.02534 | -77.10908 | 98 ft | 4 kts | 63° |
| 2026-04-29 15:01 | -12.02544 | -77.10929 | 97 ft | 4 kts | 61° |
| 2026-04-29 15:01 | -12.02559 | -77.10944 | 97 ft | 4 kts | 2° |
| 2026-04-29 15:01 | -12.02583 | -77.10937 | 115 ft | 4 kts | 333° |
| 2026-04-29 15:01 | -12.02591 | -77.10933 | 85 ft | 0 kts | 334° |
| 2026-04-29 15:05 | -12.02589 | -77.10934 | 127 ft | 2 kts | 334° |
| 2026-04-29 15:05 | -12.02581 | -77.10938 | 113 ft | 2 kts | 334° |
| 2026-04-29 15:06 | -12.02558 | -77.10949 | 97 ft | 5 kts | 334° |
| 2026-04-29 15:06 | -12.02523 | -77.10976 | 97 ft | 8 kts | 307° |
| 2026-04-29 15:06 | -12.02491 | -77.11032 | 98 ft | 10 kts | 299° |
| 2026-04-29 15:06 | -12.02449 | -77.11092 | 97 ft | 11 kts | 324° |
| 2026-04-29 15:07 | -12.02374 | -77.11131 | 94 ft | 13 kts | 334° |
| 2026-04-29 15:07 | -12.02289 | -77.11171 | 95 ft | 14 kts | 334° |
| 2026-04-29 15:07 | -12.02195 | -77.11217 | 93 ft | 16 kts | 333° |
| 2026-04-29 15:07 | -12.02095 | -77.11268 | 88 ft | 17 kts | 333° |
| 2026-04-29 15:08 | -12.01987 | -77.11321 | 85 ft | 18 kts | 333° |
| 2026-04-29 15:08 | -12.01871 | -77.11378 | 83 ft | 19 kts | 334° |
| 2026-04-29 15:08 | -12.01749 | -77.11438 | 85 ft | 20 kts | 334° |
| 2026-04-29 15:08 | -12.01623 | -77.11500 | 75 ft | 20 kts | 334° |
| 2026-04-29 15:09 | -12.01495 | -77.11564 | 75 ft | 20 kts | 333° |
| 2026-04-29 15:09 | -12.01367 | -77.11628 | 73 ft | 21 kts | 334° |
| 2026-04-29 15:09 | -12.01236 | -77.11691 | 68 ft | 21 kts | 334° |
| 2026-04-29 15:09 | -12.01104 | -77.11757 | 65 ft | 21 kts | 334° |
| 2026-04-29 15:10 | -12.00969 | -77.11824 | 68 ft | 22 kts | 334° |
| 2026-04-29 15:10 | -12.00832 | -77.11891 | 62 ft | 22 kts | 334° |
| 2026-04-29 15:10 | -12.00735 | -77.11938 | 60 ft | 10 kts | 334° |
| 2026-04-29 15:10 | -12.00682 | -77.11984 | 61 ft | 11 kts | 292° |
| 2026-04-29 15:11 | -12.00687 | -77.12047 | 59 ft | 6 kts | 246° |
| 2026-04-29 15:11 | -12.00689 | -77.12052 | 56 ft | 0 kts | 246° |
| 2026-04-29 15:21 | -12.00690 | -77.12055 | 56 ft | 2 kts | 246° |
| 2026-04-29 15:21 | -12.00703 | -77.12080 | 56 ft | 6 kts | 233° |
| 2026-04-29 15:22 | -12.00749 | -77.12109 | 58 ft | 10 kts | 191° |
| 2026-04-29 15:22 | -12.00846 | -77.12095 | 57 ft | 25 kts | 154° |
| 2026-04-29 15:22 | -12.01190 | -77.11925 | 64 ft | 87 kts | 155° |
| 2026-04-29 15:22 | -12.01935 | -77.11557 | 70 ft | 150 kts | 155° |
| 2026-04-29 15:23 | -12.03029 | -77.11013 | 204 ft | 190 kts | 153° |
| 2026-04-29 15:23 | -12.04194 | -77.10403 | 864 ft | 187 kts | 156° |
| 2026-04-29 15:23 | -12.05378 | -77.09873 | 1547 ft | 184 kts | 158° |
| 2026-04-29 15:23 | -12.06545 | -77.09339 | 2105 ft | 185 kts | 158° |
| 2026-04-29 15:24 | -12.07716 | -77.08777 | 2634 ft | 186 kts | 154° |
| 2026-04-29 15:24 | -12.08924 | -77.08171 | 2938 ft | 204 kts | 154° |
| 2026-04-29 15:24 | -12.10241 | -77.07485 | 3286 ft | 219 kts | 152° |
| 2026-04-29 15:24 | -12.11646 | -77.06775 | 3703 ft | 231 kts | 153° |
| 2026-04-29 15:25 | -12.13178 | -77.06028 | 3840 ft | 257 kts | 155° |
| 2026-04-29 15:25 | -12.14977 | -77.05638 | 3969 ft | 276 kts | 185° |
| 2026-04-29 15:25 | -12.16753 | -77.06293 | 3885 ft | 274 kts | 220° |
| 2026-04-29 15:25 | -12.17858 | -77.07838 | 3914 ft | 271 kts | 251° |
| 2026-04-29 15:26 | -12.18115 | -77.09721 | 3951 ft | 268 kts | 277° |
| 2026-04-29 15:26 | -12.17793 | -77.11597 | 3969 ft | 269 kts | 283° |
| 2026-04-29 15:26 | -12.17405 | -77.13466 | 3970 ft | 269 kts | 282° |
| 2026-04-29 15:26 | -12.17046 | -77.15341 | 3968 ft | 269 kts | 282° |
| 2026-04-29 15:27 | -12.16715 | -77.17219 | 3968 ft | 269 kts | 281° |
| 2026-04-29 15:27 | -12.16401 | -77.19099 | 3966 ft | 268 kts | 281° |
| 2026-04-29 15:27 | -12.16098 | -77.20981 | 3965 ft | 269 kts | 280° |
| 2026-04-29 15:27 | -12.15798 | -77.22863 | 3965 ft | 268 kts | 281° |
| 2026-04-29 15:28 | -12.15498 | -77.24740 | 4135 ft | 267 kts | 282° |
| 2026-04-29 15:28 | -12.15183 | -77.25960 | 4515 ft | 269 kts | 294° |
| 2026-04-29 15:28 | -12.13688 | -77.27923 | 5320 ft | 267 kts | 324° |
| 2026-04-29 15:28 | -12.12152 | -77.28997 | 5955 ft | 269 kts | 328° |
| 2026-04-29 15:29 | -12.10574 | -77.30040 | 6529 ft | 271 kts | 327° |
| 2026-04-29 15:29 | -12.07396 | -77.32203 | 7590 ft | 277 kts | 326° |
| 2026-04-29 15:30 | -12.04170 | -77.34423 | 8650 ft | 283 kts | 326° |
| 2026-04-29 15:30 | -12.02535 | -77.35560 | 9163 ft | 286 kts | 326° |
| 2026-04-29 15:30 | -12.00891 | -77.36716 | 9715 ft | 287 kts | 325° |
| 2026-04-29 15:30 | -11.99235 | -77.37876 | 10167 ft | 292 kts | 325° |
| 2026-04-29 15:31 | -11.97524 | -77.39071 | 10398 ft | 304 kts | 325° |
| 2026-04-29 15:31 | -11.95738 | -77.40326 | 10587 ft | 318 kts | 325° |
| 2026-04-29 15:31 | -11.93874 | -77.41634 | 10766 ft | 332 kts | 326° |
| 2026-04-29 15:31 | -11.91944 | -77.42982 | 11087 ft | 340 kts | 326° |
| 2026-04-29 15:32 | -11.89985 | -77.44356 | 11505 ft | 344 kts | 325° |
| 2026-04-29 15:32 | -11.88003 | -77.45747 | 11956 ft | 347 kts | 326° |
| 2026-04-29 15:32 | -11.85999 | -77.47151 | 12412 ft | 351 kts | 326° |
| 2026-04-29 15:32 | -11.83973 | -77.48564 | 12852 ft | 354 kts | 326° |
| 2026-04-29 15:33 | -11.81928 | -77.49991 | 13293 ft | 358 kts | 326° |
| 2026-04-29 15:33 | -11.79863 | -77.51432 | 13740 ft | 362 kts | 326° |
| 2026-04-29 15:33 | -11.77765 | -77.52877 | 14129 ft | 365 kts | 328° |
| 2026-04-29 15:33 | -11.75596 | -77.54237 | 14574 ft | 367 kts | 329° |
| 2026-04-29 15:34 | -11.73406 | -77.55581 | 15039 ft | 368 kts | 329° |
| 2026-04-29 15:34 | -11.71201 | -77.56927 | 15466 ft | 370 kts | 330° |
| 2026-04-29 15:34 | -11.68983 | -77.58283 | 15900 ft | 373 kts | 329° |
| 2026-04-29 15:34 | -11.66755 | -77.59652 | 16327 ft | 376 kts | 330° |
| 2026-04-29 15:35 | -11.64506 | -77.61036 | 16703 ft | 379 kts | 329° |
| 2026-04-29 15:35 | -11.62239 | -77.62431 | 17124 ft | 381 kts | 330° |
| 2026-04-29 15:35 | -11.59959 | -77.63829 | 17520 ft | 384 kts | 330° |
| 2026-04-29 15:35 | -11.57657 | -77.65238 | 17903 ft | 387 kts | 330° |
| 2026-04-29 15:36 | -11.55337 | -77.66655 | 18308 ft | 390 kts | 330° |
| 2026-04-29 15:36 | -11.53001 | -77.68080 | 18628 ft | 393 kts | 330° |
| 2026-04-29 15:36 | -11.50649 | -77.69510 | 18964 ft | 395 kts | 330° |
| 2026-04-29 15:36 | -11.48280 | -77.70949 | 19318 ft | 397 kts | 330° |
| 2026-04-29 15:37 | -11.45905 | -77.72407 | 19652 ft | 400 kts | 330° |
| 2026-04-29 15:37 | -11.43519 | -77.73871 | 19992 ft | 402 kts | 330° |
| 2026-04-29 15:37 | -11.41114 | -77.75336 | 20359 ft | 403 kts | 329° |
| 2026-04-29 15:37 | -11.38701 | -77.76810 | 20687 ft | 406 kts | 330° |
| 2026-04-29 15:38 | -11.36301 | -77.78276 | 20971 ft | 409 kts | 329° |
| 2026-04-29 15:38 | -11.33857 | -77.79771 | 21318 ft | 411 kts | 330° |
| 2026-04-29 15:38 | -11.31392 | -77.81275 | 21593 ft | 415 kts | 330° |
| 2026-04-29 15:38 | -11.28910 | -77.82792 | 21914 ft | 417 kts | 329° |
| 2026-04-29 15:39 | -11.26420 | -77.84314 | 22268 ft | 418 kts | 329° |
| 2026-04-29 15:39 | -11.23920 | -77.85845 | 22582 ft | 421 kts | 329° |
| 2026-04-29 15:39 | -11.21407 | -77.87382 | 22955 ft | 422 kts | 329° |
| 2026-04-29 15:39 | -11.18879 | -77.88924 | 23262 ft | 425 kts | 329° |
| 2026-04-29 15:40 | -11.16340 | -77.90476 | 23554 ft | 427 kts | 329° |
| 2026-04-29 15:40 | -11.13788 | -77.92037 | 23835 ft | 428 kts | 329° |
| 2026-04-29 15:40 | -11.11225 | -77.93604 | 24097 ft | 431 kts | 329° |
| 2026-04-29 15:40 | -11.08639 | -77.95154 | 24353 ft | 432 kts | 332° |
| 2026-04-29 15:41 | -11.05882 | -77.96358 | 24700 ft | 431 kts | 343° |
| 2026-04-29 15:41 | -11.02946 | -77.96938 | 25019 ft | 430 kts | 355° |
| 2026-04-29 15:41 | -10.99956 | -77.97107 | 25330 ft | 431 kts | 358° |
| 2026-04-29 15:41 | -10.96960 | -77.97215 | 25610 ft | 431 kts | 358° |
| 2026-04-29 15:42 | -10.93956 | -77.97336 | 25888 ft | 432 kts | 357° |
| 2026-04-29 15:42 | -10.90946 | -77.97470 | 26162 ft | 433 kts | 356° |
| 2026-04-29 15:42 | -10.87933 | -77.97617 | 26432 ft | 434 kts | 356° |
| 2026-04-29 15:42 | -10.84911 | -77.97770 | 26703 ft | 435 kts | 356° |
| 2026-04-29 15:43 | -10.81888 | -77.97924 | 26958 ft | 436 kts | 356° |
| 2026-04-29 15:43 | -10.78853 | -77.98079 | 27209 ft | 437 kts | 356° |
| 2026-04-29 15:43 | -10.75813 | -77.98234 | 27500 ft | 437 kts | 356° |
| 2026-04-29 15:43 | -10.72769 | -77.98388 | 27739 ft | 439 kts | 356° |
| 2026-04-29 15:44 | -10.69713 | -77.98541 | 27969 ft | 440 kts | 356° |
| 2026-04-29 15:44 | -10.66659 | -77.98696 | 28240 ft | 440 kts | 356° |
| 2026-04-29 15:44 | -10.63638 | -77.98848 | 28478 ft | 441 kts | 356° |
| 2026-04-29 15:44 | -10.60573 | -77.99003 | 28710 ft | 442 kts | 356° |
| 2026-04-29 15:45 | -10.57495 | -77.99158 | 28923 ft | 443 kts | 356° |
| 2026-04-29 15:45 | -10.54414 | -77.99314 | 29136 ft | 444 kts | 356° |
| 2026-04-29 15:45 | -10.51323 | -77.99469 | 29340 ft | 445 kts | 356° |
| 2026-04-29 15:45 | -10.48223 | -77.99626 | 29566 ft | 446 kts | 355° |
| 2026-04-29 15:46 | -10.45119 | -77.99783 | 29764 ft | 447 kts | 355° |
| 2026-04-29 15:46 | -10.42006 | -77.99941 | 29964 ft | 448 kts | 355° |
| 2026-04-29 15:46 | -10.38883 | -78.00096 | 30051 ft | 450 kts | 355° |
| 2026-04-29 15:47 | -10.32631 | -78.00405 | 30045 ft | 448 kts | 355° |
| 2026-04-29 15:47 | -10.26419 | -78.00718 | 30034 ft | 447 kts | 355° |
| 2026-04-29 15:48 | -10.20233 | -78.01234 | 30045 ft | 445 kts | 346° |
| 2026-04-29 15:48 | -10.17303 | -78.02187 | 30048 ft | 442 kts | 335° |
| 2026-04-29 15:48 | -10.14523 | -78.03523 | 30047 ft | 442 kts | 333° |
| 2026-04-29 15:49 | -10.09016 | -78.06300 | 30055 ft | 442 kts | 333° |
| 2026-04-29 15:49 | -10.03483 | -78.09022 | 30083 ft | 442 kts | 333° |
| 2026-04-29 15:50 | -9.97941 | -78.11728 | 30038 ft | 442 kts | 333° |
| 2026-04-29 15:50 | -9.92398 | -78.14443 | 30045 ft | 442 kts | 333° |
| 2026-04-29 15:51 | -9.86852 | -78.17148 | 30064 ft | 442 kts | 333° |
| 2026-04-29 15:51 | -9.81302 | -78.19856 | 30066 ft | 442 kts | 333° |
| 2026-04-29 15:52 | -9.75754 | -78.22560 | 30085 ft | 442 kts | 333° |
| 2026-04-29 15:52 | -9.70207 | -78.25267 | 30056 ft | 442 kts | 333° |
| 2026-04-29 15:53 | -9.64661 | -78.27967 | 30056 ft | 442 kts | 333° |
| 2026-04-29 15:53 | -9.59109 | -78.30663 | 30041 ft | 443 kts | 333° |
| 2026-04-29 15:54 | -9.53556 | -78.33364 | 30038 ft | 443 kts | 333° |
| 2026-04-29 15:54 | -9.48007 | -78.36070 | 30021 ft | 443 kts | 333° |
| 2026-04-29 15:55 | -9.42448 | -78.38758 | 30005 ft | 443 kts | 333° |
| 2026-04-29 15:55 | -9.36928 | -78.41432 | 29959 ft | 443 kts | 333° |
| 2026-04-29 15:56 | -9.31379 | -78.44145 | 29942 ft | 443 kts | 333° |
| 2026-04-29 15:56 | -9.25822 | -78.46841 | 29932 ft | 443 kts | 334° |
| 2026-04-29 15:57 | -9.20258 | -78.49536 | 29935 ft | 443 kts | 333° |
| 2026-04-29 15:57 | -9.14709 | -78.52260 | 29934 ft | 443 kts | 332° |
| 2026-04-29 15:58 | -9.09315 | -78.55260 | 29941 ft | 443 kts | 330° |
| 2026-04-29 15:58 | -9.03921 | -78.58269 | 29961 ft | 443 kts | 330° |
| 2026-04-29 15:59 | -8.98530 | -78.61277 | 29964 ft | 443 kts | 330° |
| 2026-04-29 15:59 | -8.93139 | -78.64283 | 29965 ft | 443 kts | 330° |
| 2026-04-29 16:00 | -8.87742 | -78.67294 | 29993 ft | 443 kts | 330° |
| 2026-04-29 16:00 | -8.82338 | -78.70311 | 29946 ft | 445 kts | 330° |
| 2026-04-29 16:01 | -8.76922 | -78.73339 | 29970 ft | 445 kts | 330° |
| 2026-04-29 16:01 | -8.71497 | -78.76359 | 29967 ft | 445 kts | 330° |
| 2026-04-29 16:02 | -8.66079 | -78.79383 | 29971 ft | 445 kts | 330° |
| 2026-04-29 16:02 | -8.60657 | -78.82409 | 30009 ft | 445 kts | 330° |
| 2026-04-29 16:03 | -8.55231 | -78.85424 | 29941 ft | 445 kts | 330° |
| 2026-04-29 16:03 | -8.49805 | -78.88442 | 29947 ft | 445 kts | 330° |
| 2026-04-29 16:04 | -8.44379 | -78.91460 | 29977 ft | 445 kts | 330° |
| 2026-04-29 16:04 | -8.38956 | -78.94483 | 29979 ft | 445 kts | 330° |
| 2026-04-29 16:05 | -8.33536 | -78.97509 | 29978 ft | 445 kts | 330° |
| 2026-04-29 16:05 | -8.28146 | -79.00503 | 29946 ft | 445 kts | 330° |
| 2026-04-29 16:06 | -8.22723 | -79.03517 | 29939 ft | 445 kts | 330° |
| 2026-04-29 16:06 | -8.17298 | -79.06538 | 29935 ft | 446 kts | 330° |
| 2026-04-29 16:07 | -8.11841 | -79.09562 | 29936 ft | 448 kts | 330° |
| 2026-04-29 16:07 | -8.06986 | -79.11503 | 29932 ft | 452 kts | 347° |
| 2026-04-29 16:08 | -8.00775 | -79.12323 | 29937 ft | 454 kts | 352° |
| 2026-04-29 16:08 | -7.94505 | -79.13050 | 29940 ft | 453 kts | 351° |
| 2026-04-29 16:09 | -7.88249 | -79.13827 | 29940 ft | 453 kts | 351° |
| 2026-04-29 16:09 | -7.82000 | -79.14631 | 29945 ft | 453 kts | 351° |
| 2026-04-29 16:10 | -7.75750 | -79.15423 | 29948 ft | 453 kts | 351° |
| 2026-04-29 16:10 | -7.69500 | -79.16223 | 29969 ft | 453 kts | 351° |
| 2026-04-29 16:11 | -7.63251 | -79.17004 | 29970 ft | 453 kts | 351° |
| 2026-04-29 16:11 | -7.56999 | -79.17790 | 29971 ft | 453 kts | 351° |
| 2026-04-29 16:12 | -7.50739 | -79.18589 | 29970 ft | 453 kts | 351° |
| 2026-04-29 16:12 | -7.44485 | -79.19376 | 29979 ft | 453 kts | 351° |
| 2026-04-29 16:13 | -7.38240 | -79.20151 | 29979 ft | 452 kts | 351° |
| 2026-04-29 16:13 | -7.32003 | -79.20943 | 29979 ft | 452 kts | 351° |
| 2026-04-29 16:14 | -7.25763 | -79.21729 | 30004 ft | 452 kts | 351° |
| 2026-04-29 16:14 | -7.19522 | -79.22521 | 30004 ft | 452 kts | 351° |
| 2026-04-29 16:15 | -7.13283 | -79.23305 | 30024 ft | 452 kts | 351° |
| 2026-04-29 16:15 | -7.07045 | -79.24089 | 30025 ft | 452 kts | 351° |
| 2026-04-29 16:16 | -7.00806 | -79.24869 | 30039 ft | 452 kts | 351° |
| 2026-04-29 16:16 | -6.94610 | -79.25644 | 30040 ft | 452 kts | 351° |
| 2026-04-29 16:17 | -6.88373 | -79.26428 | 30042 ft | 452 kts | 351° |
| 2026-04-29 16:17 | -6.82133 | -79.27214 | 30056 ft | 452 kts | 351° |
| 2026-04-29 16:18 | -6.75894 | -79.28012 | 30010 ft | 452 kts | 351° |
| 2026-04-29 16:18 | -6.69656 | -79.28797 | 30024 ft | 451 kts | 351° |
| 2026-04-29 16:19 | -6.63424 | -79.29588 | 30020 ft | 451 kts | 351° |
| 2026-04-29 16:19 | -6.57200 | -79.30369 | 30033 ft | 451 kts | 351° |
| 2026-04-29 16:20 | -6.50975 | -79.31140 | 30035 ft | 451 kts | 351° |
| 2026-04-29 16:20 | -6.44751 | -79.31914 | 30036 ft | 451 kts | 351° |
| 2026-04-29 16:21 | -6.38528 | -79.32702 | 30039 ft | 451 kts | 351° |
| 2026-04-29 16:21 | -6.32318 | -79.33479 | 30039 ft | 445 kts | 351° |
| 2026-04-29 16:22 | -6.26205 | -79.34248 | 30045 ft | 445 kts | 351° |
| 2026-04-29 16:22 | -6.20073 | -79.35019 | 30048 ft | 443 kts | 351° |
| 2026-04-29 16:23 | -6.13945 | -79.35789 | 30047 ft | 444 kts | 351° |
| 2026-04-29 16:23 | -6.07822 | -79.36560 | 30051 ft | 444 kts | 351° |
| 2026-04-29 16:24 | -6.01684 | -79.37320 | 30052 ft | 443 kts | 351° |
| 2026-04-29 16:24 | -5.95565 | -79.38093 | 30055 ft | 444 kts | 352° |
| 2026-04-29 16:25 | -5.89440 | -79.38864 | 30056 ft | 443 kts | 352° |
| 2026-04-29 16:25 | -5.83306 | -79.39606 | 30053 ft | 444 kts | 352° |
| 2026-04-29 16:26 | -5.77185 | -79.40378 | 30047 ft | 443 kts | 351° |
| 2026-04-29 16:26 | -5.71111 | -79.41152 | 30052 ft | 443 kts | 352° |
| 2026-04-29 16:27 | -5.64993 | -79.41924 | 30060 ft | 444 kts | 352° |
| 2026-04-29 16:27 | -5.58871 | -79.42690 | 30035 ft | 444 kts | 352° |
| 2026-04-29 16:28 | -5.52748 | -79.43455 | 30060 ft | 441 kts | 351° |
| 2026-04-29 16:28 | -5.46641 | -79.44224 | 30059 ft | 444 kts | 351° |
| 2026-04-29 16:29 | -5.40529 | -79.44992 | 30064 ft | 442 kts | 351° |
| 2026-04-29 16:29 | -5.34400 | -79.45754 | 30081 ft | 443 kts | 351° |
| 2026-04-29 16:30 | -5.28288 | -79.46518 | 30082 ft | 444 kts | 351° |
| 2026-04-29 16:30 | -5.22175 | -79.47289 | 30095 ft | 439 kts | 352° |
| 2026-04-29 16:31 | -5.16083 | -79.48057 | 30093 ft | 441 kts | 352° |
| 2026-04-29 16:31 | -5.10002 | -79.48810 | 30095 ft | 441 kts | 352° |
| 2026-04-29 16:32 | -5.03903 | -79.49567 | 30107 ft | 440 kts | 352° |
| 2026-04-29 16:32 | -4.97817 | -79.50331 | 30101 ft | 442 kts | 352° |
| 2026-04-29 16:33 | -4.88687 | -79.51470 | 30102 ft | 442 kts | 352° |
| 2026-04-29 16:33 | -4.82577 | -79.52234 | 30101 ft | 444 kts | 352° |
| 2026-04-29 16:34 | -4.76433 | -79.53002 | 30086 ft | 445 kts | 352° |
| 2026-04-29 16:34 | -4.70292 | -79.53766 | 30086 ft | 445 kts | 352° |
| 2026-04-29 16:35 | -4.64152 | -79.54535 | 30072 ft | 444 kts | 352° |
| 2026-04-29 16:35 | -4.58011 | -79.55297 | 30073 ft | 445 kts | 352° |
| 2026-04-29 16:36 | -4.51910 | -79.56064 | 30069 ft | 445 kts | 352° |
| 2026-04-29 16:36 | -4.45777 | -79.56840 | 30057 ft | 442 kts | 352° |
| 2026-04-29 16:37 | -4.39661 | -79.57628 | 30031 ft | 443 kts | 352° |
| 2026-04-29 16:37 | -4.34540 | -79.58286 | 30024 ft | 443 kts | 352° |
| 2026-04-29 16:38 | -4.27427 | -79.59198 | 30021 ft | 443 kts | 352° |
| 2026-04-29 16:38 | -4.21311 | -79.59987 | 30031 ft | 444 kts | 352° |
| 2026-04-29 16:39 | -4.15193 | -79.60770 | 30034 ft | 443 kts | 352° |
| 2026-04-29 16:39 | -4.09073 | -79.61554 | 30041 ft | 443 kts | 352° |
| 2026-04-29 16:40 | -4.02961 | -79.62340 | 30046 ft | 444 kts | 352° |
| 2026-04-29 16:40 | -3.96846 | -79.63126 | 30043 ft | 443 kts | 352° |
| 2026-04-29 16:41 | -3.90723 | -79.63912 | 30041 ft | 443 kts | 352° |
| 2026-04-29 16:41 | -3.84605 | -79.64696 | 30032 ft | 444 kts | 352° |
| 2026-04-29 16:42 | -3.78483 | -79.65478 | 30022 ft | 443 kts | 352° |
| 2026-04-29 16:42 | -3.72367 | -79.66266 | 30032 ft | 442 kts | 353° |
| 2026-04-29 16:43 | -3.66277 | -79.67050 | 30026 ft | 441 kts | 353° |
| 2026-04-29 16:43 | -3.60184 | -79.67830 | 30038 ft | 441 kts | 353° |
| 2026-04-29 16:44 | -3.54084 | -79.68610 | 30040 ft | 442 kts | 353° |
| 2026-04-29 16:44 | -3.47990 | -79.69394 | 30007 ft | 442 kts | 353° |
| 2026-04-29 16:45 | -3.41891 | -79.70172 | 30011 ft | 441 kts | 353° |
| 2026-04-29 16:45 | -3.35791 | -79.70954 | 30009 ft | 442 kts | 353° |
| 2026-04-29 16:46 | -3.29691 | -79.71734 | 30029 ft | 442 kts | 353° |
| 2026-04-29 16:46 | -3.23581 | -79.72514 | 29997 ft | 441 kts | 353° |
| 2026-04-29 16:47 | -3.17482 | -79.73297 | 30001 ft | 442 kts | 353° |
| 2026-04-29 16:47 | -3.11385 | -79.74078 | 29994 ft | 442 kts | 353° |
| 2026-04-29 16:48 | -3.05280 | -79.74859 | 29996 ft | 442 kts | 353° |
| 2026-04-29 16:48 | -2.99179 | -79.75652 | 29985 ft | 442 kts | 353° |
| 2026-04-29 16:49 | -2.93078 | -79.76215 | 29984 ft | 441 kts | 359° |
| 2026-04-29 16:49 | -2.89999 | -79.76246 | 30088 ft | 443 kts | 360° |
| 2026-04-29 16:49 | -2.86921 | -79.76270 | 30330 ft | 442 kts | 359° |
| 2026-04-29 16:50 | -2.83847 | -79.76304 | 30522 ft | 442 kts | 359° |
| 2026-04-29 16:50 | -2.80768 | -79.76347 | 30690 ft | 442 kts | 359° |
| 2026-04-29 16:50 | -2.77694 | -79.76399 | 30915 ft | 442 kts | 359° |
| 2026-04-29 16:50 | -2.74615 | -79.76454 | 31062 ft | 443 kts | 358° |
| 2026-04-29 16:51 | -2.71528 | -79.76508 | 31225 ft | 444 kts | 358° |
| 2026-04-29 16:51 | -2.68441 | -79.76558 | 31406 ft | 444 kts | 358° |
| 2026-04-29 16:51 | -2.65350 | -79.76610 | 31549 ft | 445 kts | 358° |
| 2026-04-29 16:51 | -2.62251 | -79.76663 | 31738 ft | 445 kts | 358° |
| 2026-04-29 16:52 | -2.56028 | -79.76765 | 31896 ft | 450 kts | 358° |
| 2026-04-29 16:52 | -2.49732 | -79.76869 | 31944 ft | 454 kts | 358° |
| 2026-04-29 16:53 | -2.44483 | -79.76956 | 31924 ft | 454 kts | 358° |
| 2026-04-29 16:53 | -2.38168 | -79.77061 | 31908 ft | 454 kts | 358° |
| 2026-04-29 16:54 | -2.31853 | -79.77165 | 31915 ft | 454 kts | 358° |
| 2026-04-29 16:54 | -2.25540 | -79.77272 | 31902 ft | 454 kts | 358° |
| 2026-04-29 16:55 | -2.19214 | -79.77374 | 31904 ft | 455 kts | 358° |
| 2026-04-29 16:55 | -2.12878 | -79.77480 | 31905 ft | 455 kts | 358° |
| 2026-04-29 16:56 | -2.06547 | -79.77584 | 31886 ft | 455 kts | 358° |
| 2026-04-29 16:56 | -2.00211 | -79.77687 | 31885 ft | 455 kts | 358° |
| 2026-04-29 16:57 | -1.93887 | -79.77792 | 31898 ft | 454 kts | 358° |
| 2026-04-29 16:57 | -1.87561 | -79.77898 | 31899 ft | 454 kts | 358° |
| 2026-04-29 16:58 | -1.81226 | -79.78002 | 31895 ft | 456 kts | 358° |
| 2026-04-29 16:58 | -1.74923 | -79.78109 | 31907 ft | 456 kts | 358° |
| 2026-04-29 16:59 | -1.68576 | -79.78214 | 31909 ft | 456 kts | 358° |
| 2026-04-29 16:59 | -1.62225 | -79.78321 | 31906 ft | 456 kts | 358° |
| 2026-04-29 17:00 | -1.55882 | -79.78421 | 31912 ft | 456 kts | 358° |
| 2026-04-29 17:00 | -1.49539 | -79.78527 | 31924 ft | 456 kts | 358° |
| 2026-04-29 17:01 | -1.43176 | -79.78632 | 31923 ft | 458 kts | 358° |
| 2026-04-29 17:01 | -1.36809 | -79.78739 | 31923 ft | 458 kts | 358° |
| 2026-04-29 17:02 | -1.30438 | -79.78843 | 31932 ft | 458 kts | 358° |
| 2026-04-29 17:02 | -1.24066 | -79.78949 | 31933 ft | 458 kts | 358° |
| 2026-04-29 17:03 | -1.17700 | -79.79052 | 31938 ft | 458 kts | 358° |
| 2026-04-29 17:03 | -1.11327 | -79.79159 | 31937 ft | 458 kts | 359° |
| 2026-04-29 17:04 | -1.04941 | -79.79262 | 31949 ft | 459 kts | 359° |
| 2026-04-29 17:04 | -0.98548 | -79.79369 | 31942 ft | 459 kts | 359° |
| 2026-04-29 17:05 | -0.92154 | -79.79477 | 31939 ft | 460 kts | 359° |
| 2026-04-29 17:05 | -0.85759 | -79.79585 | 31954 ft | 460 kts | 359° |
| 2026-04-29 17:06 | -0.79350 | -79.79690 | 31954 ft | 462 kts | 358° |
| 2026-04-29 17:06 | -0.72908 | -79.79797 | 31963 ft | 464 kts | 358° |
| 2026-04-29 17:07 | -0.66427 | -79.79901 | 31962 ft | 466 kts | 358° |
| 2026-04-29 17:07 | -0.59944 | -79.80008 | 31952 ft | 466 kts | 358° |
| 2026-04-29 17:08 | -0.53498 | -79.80115 | 31953 ft | 466 kts | 358° |
| 2026-04-29 17:08 | -0.47010 | -79.80222 | 31949 ft | 466 kts | 358° |
| 2026-04-29 17:09 | -0.40530 | -79.80327 | 31941 ft | 466 kts | 358° |
| 2026-04-29 17:09 | -0.34050 | -79.80434 | 31939 ft | 466 kts | 358° |
| 2026-04-29 17:10 | -0.27568 | -79.80546 | 31928 ft | 466 kts | 358° |
| 2026-04-29 17:10 | -0.21089 | -79.80650 | 31925 ft | 466 kts | 358° |
| 2026-04-29 17:11 | -0.14609 | -79.80759 | 31924 ft | 466 kts | 358° |
| 2026-04-29 17:11 | -0.08128 | -79.80868 | 31926 ft | 466 kts | 358° |
| 2026-04-29 17:12 | -0.01648 | -79.80976 | 31923 ft | 466 kts | 358° |
| 2026-04-29 17:12 | 0.03790 | -79.81066 | 31917 ft | 468 kts | 358° |
| 2026-04-29 17:13 | 0.11359 | -79.81185 | 31917 ft | 468 kts | 358° |
| 2026-04-29 17:13 | 0.17874 | -79.81291 | 31907 ft | 468 kts | 358° |
| 2026-04-29 17:14 | 0.24393 | -79.81400 | 31905 ft | 468 kts | 358° |
| 2026-04-29 17:14 | 0.30909 | -79.81512 | 31899 ft | 468 kts | 358° |
| 2026-04-29 17:15 | 0.37422 | -79.81621 | 31896 ft | 468 kts | 358° |
| 2026-04-29 17:15 | 0.43946 | -79.81727 | 31896 ft | 469 kts | 358° |
| 2026-04-29 17:16 | 0.50475 | -79.81833 | 31889 ft | 469 kts | 358° |
| 2026-04-29 17:16 | 0.57003 | -79.81941 | 31887 ft | 469 kts | 358° |
| 2026-04-29 17:17 | 0.63530 | -79.82050 | 31876 ft | 469 kts | 358° |
| 2026-04-29 17:17 | 0.70059 | -79.82156 | 31876 ft | 469 kts | 358° |
| 2026-04-29 17:18 | 0.76590 | -79.82267 | 31876 ft | 469 kts | 358° |
| 2026-04-29 17:18 | 0.83126 | -79.82376 | 31876 ft | 470 kts | 358° |
| 2026-04-29 17:19 | 0.89663 | -79.82483 | 31869 ft | 470 kts | 358° |
| 2026-04-29 17:19 | 0.96197 | -79.82592 | 31876 ft | 470 kts | 358° |
| 2026-04-29 17:20 | 1.02734 | -79.82701 | 31876 ft | 470 kts | 358° |
| 2026-04-29 17:20 | 1.09273 | -79.82809 | 31879 ft | 470 kts | 358° |
| 2026-04-29 17:21 | 1.15767 | -79.82913 | 31881 ft | 470 kts | 358° |
| 2026-04-29 17:21 | 1.22306 | -79.83024 | 31876 ft | 470 kts | 358° |
| 2026-04-29 17:22 | 1.28845 | -79.83134 | 31875 ft | 470 kts | 358° |
| 2026-04-29 17:22 | 1.35384 | -79.83240 | 31875 ft | 470 kts | 358° |
| 2026-04-29 17:23 | 1.41920 | -79.83326 | 31877 ft | 470 kts | 0° |
| 2026-04-29 17:23 | 1.48461 | -79.83053 | 31876 ft | 470 kts | 2° |
| 2026-04-29 17:24 | 1.54992 | -79.82765 | 31875 ft | 469 kts | 2° |
| 2026-04-29 17:24 | 1.61509 | -79.82455 | 31876 ft | 469 kts | 2° |
| 2026-04-29 17:25 | 1.68026 | -79.82150 | 31880 ft | 469 kts | 2° |
| 2026-04-29 17:25 | 1.74546 | -79.81867 | 31879 ft | 469 kts | 2° |
| 2026-04-29 17:26 | 1.81066 | -79.81579 | 31881 ft | 469 kts | 2° |
| 2026-04-29 17:26 | 1.87584 | -79.81286 | 31883 ft | 469 kts | 2° |
| 2026-04-29 17:27 | 1.94107 | -79.80999 | 31879 ft | 469 kts | 2° |
| 2026-04-29 17:27 | 2.00631 | -79.80707 | 31878 ft | 469 kts | 2° |
| 2026-04-29 17:28 | 2.07155 | -79.80429 | 31879 ft | 469 kts | 2° |
| 2026-04-29 17:28 | 2.13680 | -79.80141 | 31878 ft | 469 kts | 2° |
| 2026-04-29 17:29 | 2.20205 | -79.79846 | 31879 ft | 469 kts | 2° |
| 2026-04-29 17:29 | 2.25628 | -79.79610 | 31880 ft | 469 kts | 2° |
| 2026-04-29 17:30 | 2.33223 | -79.79271 | 31880 ft | 467 kts | 2° |
| 2026-04-29 17:30 | 2.39666 | -79.78988 | 31883 ft | 467 kts | 2° |
| 2026-04-29 17:31 | 2.46154 | -79.78699 | 31880 ft | 467 kts | 2° |
| 2026-04-29 17:31 | 2.52639 | -79.78410 | 31880 ft | 467 kts | 2° |
| 2026-04-29 17:32 | 2.59126 | -79.78126 | 31880 ft | 467 kts | 2° |
| 2026-04-29 17:32 | 2.65612 | -79.77833 | 31880 ft | 467 kts | 2° |
| 2026-04-29 17:33 | 2.72110 | -79.77548 | 31880 ft | 467 kts | 2° |
| 2026-04-29 17:33 | 2.78605 | -79.77260 | 31879 ft | 467 kts | 2° |
| 2026-04-29 17:34 | 2.85104 | -79.76969 | 31876 ft | 467 kts | 2° |
| 2026-04-29 17:34 | 2.91598 | -79.76681 | 31876 ft | 467 kts | 2° |
| 2026-04-29 17:35 | 3.01342 | -79.76250 | 31876 ft | 467 kts | 2° |
| 2026-04-29 17:36 | 3.07861 | -79.75961 | 31877 ft | 469 kts | 2° |
| 2026-04-29 17:36 | 3.14387 | -79.75672 | 31876 ft | 469 kts | 2° |
| 2026-04-29 17:37 | 3.20914 | -79.75377 | 31871 ft | 469 kts | 2° |
| 2026-04-29 17:37 | 3.27442 | -79.75086 | 31872 ft | 470 kts | 2° |
| 2026-04-29 17:38 | 3.33969 | -79.74800 | 31874 ft | 470 kts | 2° |
| 2026-04-29 17:38 | 3.40497 | -79.74508 | 31874 ft | 470 kts | 2° |
| 2026-04-29 17:39 | 3.47023 | -79.74218 | 31870 ft | 469 kts | 2° |
| 2026-04-29 17:39 | 3.53552 | -79.73926 | 31868 ft | 469 kts | 2° |
| 2026-04-29 17:40 | 3.58976 | -79.73682 | 31873 ft | 469 kts | 2° |
| 2026-04-29 17:40 | 3.66560 | -79.73346 | 31875 ft | 470 kts | 2° |
| 2026-04-29 17:41 | 3.73089 | -79.73058 | 31876 ft | 470 kts | 2° |
| 2026-04-29 17:41 | 3.78568 | -79.72814 | 31866 ft | 472 kts | 2° |
| 2026-04-29 17:42 | 3.85142 | -79.72518 | 31866 ft | 473 kts | 2° |
| 2026-04-29 17:42 | 3.91721 | -79.72224 | 31863 ft | 473 kts | 2° |
| 2026-04-29 17:43 | 3.98295 | -79.71932 | 31861 ft | 473 kts | 2° |
| 2026-04-29 17:43 | 4.04874 | -79.71636 | 31861 ft | 473 kts | 2° |
| 2026-04-29 17:44 | 4.11450 | -79.71344 | 31860 ft | 473 kts | 2° |
| 2026-04-29 17:44 | 4.18035 | -79.71048 | 31857 ft | 474 kts | 2° |
| 2026-04-29 17:45 | 4.24622 | -79.70754 | 31860 ft | 474 kts | 2° |
| 2026-04-29 17:45 | 4.31214 | -79.70462 | 31863 ft | 474 kts | 2° |
| 2026-04-29 17:46 | 4.37808 | -79.70169 | 31857 ft | 474 kts | 2° |
| 2026-04-29 17:46 | 4.44399 | -79.69878 | 31857 ft | 474 kts | 2° |
| 2026-04-29 17:47 | 4.50988 | -79.69589 | 31859 ft | 474 kts | 2° |
| 2026-04-29 17:47 | 4.57583 | -79.69287 | 31858 ft | 475 kts | 2° |
| 2026-04-29 17:48 | 4.64181 | -79.68991 | 31857 ft | 475 kts | 2° |
| 2026-04-29 17:48 | 4.70737 | -79.68701 | 31857 ft | 475 kts | 2° |
| 2026-04-29 17:49 | 4.77336 | -79.68406 | 31857 ft | 475 kts | 2° |
| 2026-04-29 17:49 | 4.83933 | -79.68114 | 31853 ft | 474 kts | 2° |
| 2026-04-29 17:50 | 4.90534 | -79.67817 | 31853 ft | 476 kts | 2° |
| 2026-04-29 17:50 | 4.97150 | -79.67523 | 31851 ft | 476 kts | 2° |
| 2026-04-29 17:51 | 5.03773 | -79.67225 | 31851 ft | 476 kts | 2° |
| 2026-04-29 17:51 | 5.10396 | -79.66925 | 31848 ft | 476 kts | 2° |
| 2026-04-29 17:52 | 5.17017 | -79.66627 | 31848 ft | 476 kts | 2° |
| 2026-04-29 17:52 | 5.23642 | -79.66423 | 31849 ft | 476 kts | 1° |
| 2026-04-29 17:53 | 5.30277 | -79.66248 | 31849 ft | 478 kts | 1° |
| 2026-04-29 17:53 | 5.36923 | -79.66057 | 31849 ft | 478 kts | 1° |
| 2026-04-29 17:54 | 5.43568 | -79.65884 | 31846 ft | 478 kts | 1° |
| 2026-04-29 17:54 | 5.50213 | -79.65713 | 31846 ft | 478 kts | 1° |
| 2026-04-29 17:55 | 5.56858 | -79.65528 | 31845 ft | 478 kts | 1° |
| 2026-04-29 17:55 | 5.63505 | -79.65339 | 31844 ft | 478 kts | 1° |
| 2026-04-29 17:56 | 5.70159 | -79.65153 | 31842 ft | 478 kts | 1° |
| 2026-04-29 17:56 | 5.76808 | -79.64965 | 31843 ft | 478 kts | 1° |
| 2026-04-29 17:57 | 5.83454 | -79.64778 | 31844 ft | 478 kts | 1° |
| 2026-04-29 17:57 | 5.90103 | -79.64590 | 31843 ft | 478 kts | 1° |
| 2026-04-29 17:58 | 5.96752 | -79.64404 | 31843 ft | 478 kts | 1° |
| 2026-04-29 17:58 | 6.03402 | -79.64215 | 31841 ft | 479 kts | 1° |
| 2026-04-29 17:59 | 6.10015 | -79.64030 | 31841 ft | 479 kts | 1° |
| 2026-04-29 17:59 | 6.16674 | -79.63843 | 31841 ft | 479 kts | 1° |
| 2026-04-29 18:00 | 6.23335 | -79.63654 | 31837 ft | 479 kts | 1° |
| 2026-04-29 18:00 | 6.29995 | -79.63466 | 31840 ft | 479 kts | 1° |
| 2026-04-29 18:01 | 6.36656 | -79.63270 | 31842 ft | 479 kts | 1° |
| 2026-04-29 18:01 | 6.43318 | -79.63085 | 31837 ft | 479 kts | 1° |
| 2026-04-29 18:02 | 6.49982 | -79.62896 | 31838 ft | 479 kts | 1° |
| 2026-04-29 18:02 | 6.56645 | -79.62708 | 31837 ft | 479 kts | 1° |
| 2026-04-29 18:03 | 6.63309 | -79.62521 | 31839 ft | 479 kts | 1° |
| 2026-04-29 18:03 | 6.69972 | -79.62327 | 31837 ft | 479 kts | 1° |
| 2026-04-29 18:04 | 6.76633 | -79.62141 | 31840 ft | 479 kts | 1° |
| 2026-04-29 18:04 | 6.83293 | -79.61954 | 31841 ft | 479 kts | 1° |
| 2026-04-29 18:05 | 6.89954 | -79.61767 | 31840 ft | 479 kts | 1° |
| 2026-04-29 18:05 | 6.96614 | -79.61579 | 31840 ft | 479 kts | 1° |
| 2026-04-29 18:06 | 7.03273 | -79.61390 | 31841 ft | 479 kts | 1° |
| 2026-04-29 18:06 | 7.09928 | -79.61201 | 31840 ft | 479 kts | 1° |
| 2026-04-29 18:07 | 7.16588 | -79.61010 | 31837 ft | 479 kts | 1° |
| 2026-04-29 18:07 | 7.23203 | -79.60824 | 31837 ft | 479 kts | 1° |
| 2026-04-29 18:08 | 7.29862 | -79.60633 | 31838 ft | 479 kts | 1° |
| 2026-04-29 18:08 | 7.36522 | -79.60438 | 31838 ft | 479 kts | 1° |
| 2026-04-29 18:09 | 7.43179 | -79.60239 | 31838 ft | 479 kts | 1° |
| 2026-04-29 18:09 | 7.49838 | -79.60043 | 31835 ft | 479 kts | 1° |
| 2026-04-29 18:10 | 7.56498 | -79.59847 | 31834 ft | 478 kts | 1° |
| 2026-04-29 18:10 | 7.63150 | -79.59650 | 31838 ft | 478 kts | 1° |
| 2026-04-29 18:11 | 7.69806 | -79.59453 | 31839 ft | 478 kts | 1° |
| 2026-04-29 18:11 | 7.76462 | -79.59255 | 31837 ft | 478 kts | 1° |
| 2026-04-29 18:12 | 7.83118 | -79.59058 | 31836 ft | 479 kts | 1° |
| 2026-04-29 18:12 | 7.89777 | -79.58861 | 31838 ft | 479 kts | 0° |
| 2026-04-29 18:13 | 7.96435 | -79.58665 | 31833 ft | 479 kts | 0° |
| 2026-04-29 18:13 | 8.03091 | -79.58468 | 31831 ft | 479 kts | 0° |
| 2026-04-29 18:14 | 8.09749 | -79.58272 | 31828 ft | 479 kts | 0° |
| 2026-04-29 18:14 | 8.16405 | -79.58074 | 31829 ft | 479 kts | 0° |
| 2026-04-29 18:15 | 8.23065 | -79.57875 | 31828 ft | 479 kts | 0° |
| 2026-04-29 18:15 | 8.29740 | -79.57677 | 31829 ft | 480 kts | 0° |
| 2026-04-29 18:16 | 8.36414 | -79.57481 | 31823 ft | 480 kts | 0° |
| 2026-04-29 18:16 | 8.43093 | -79.57283 | 31826 ft | 480 kts | 0° |
| 2026-04-29 18:17 | 8.49769 | -79.57084 | 31827 ft | 480 kts | 0° |
| 2026-04-29 18:17 | 8.56448 | -79.56885 | 31821 ft | 480 kts | 0° |
| 2026-04-29 18:18 | 8.63137 | -79.56686 | 31828 ft | 482 kts | 359° |
| 2026-04-29 18:18 | 8.69847 | -79.56486 | 31833 ft | 482 kts | 359° |
| 2026-04-29 18:19 | 8.76555 | -79.56286 | 31840 ft | 482 kts | 359° |
| 2026-04-29 18:19 | 8.83236 | -79.55538 | 31846 ft | 484 kts | 7° |
| 2026-04-29 18:20 | 8.89890 | -79.54442 | 31847 ft | 484 kts | 7° |
| 2026-04-29 18:20 | 8.96505 | -79.53377 | 31823 ft | 485 kts | 7° |
| 2026-04-29 18:21 | 9.03179 | -79.52305 | 31818 ft | 486 kts | 7° |
| 2026-04-29 18:21 | 9.09856 | -79.51231 | 31820 ft | 486 kts | 7° |
| 2026-04-29 18:22 | 9.16534 | -79.50161 | 31842 ft | 486 kts | 7° |
| 2026-04-29 18:22 | 9.23213 | -79.49093 | 31843 ft | 486 kts | 7° |
| 2026-04-29 18:23 | 9.29891 | -79.48019 | 31856 ft | 486 kts | 7° |
| 2026-04-29 18:23 | 9.36569 | -79.46945 | 31855 ft | 486 kts | 7° |
| 2026-04-29 18:24 | 9.43253 | -79.45874 | 31864 ft | 486 kts | 6° |
| 2026-04-29 18:24 | 9.49938 | -79.44803 | 31863 ft | 486 kts | 7° |
| 2026-04-29 18:25 | 9.56621 | -79.43732 | 31867 ft | 486 kts | 7° |
| 2026-04-29 18:25 | 9.63307 | -79.42652 | 31867 ft | 486 kts | 7° |
| 2026-04-29 18:26 | 9.69979 | -79.41579 | 31862 ft | 485 kts | 6° |
| 2026-04-29 18:26 | 9.76646 | -79.40506 | 31859 ft | 485 kts | 6° |
| 2026-04-29 18:27 | 9.82188 | -79.39614 | 31861 ft | 485 kts | 6° |
| 2026-04-29 18:27 | 9.88853 | -79.38539 | 31858 ft | 485 kts | 6° |
| 2026-04-29 18:28 | 9.96600 | -79.37290 | 31856 ft | 485 kts | 6° |
| 2026-04-29 18:28 | 10.03266 | -79.36217 | 31860 ft | 485 kts | 6° |
| 2026-04-29 18:29 | 10.08860 | -79.35313 | 31857 ft | 486 kts | 6° |
| 2026-04-29 18:29 | 10.15497 | -79.34241 | 31874 ft | 486 kts | 6° |
| 2026-04-29 18:30 | 10.22183 | -79.33161 | 31882 ft | 486 kts | 6° |
| 2026-04-29 18:30 | 10.28872 | -79.32082 | 31866 ft | 487 kts | 6° |
| 2026-04-29 18:31 | 10.35560 | -79.31002 | 31859 ft | 487 kts | 6° |
| 2026-04-29 18:31 | 10.42255 | -79.29937 | 31857 ft | 487 kts | 5° |
| 2026-04-29 18:32 | 10.48975 | -79.29013 | 31855 ft | 488 kts | 4° |
| 2026-04-29 18:32 | 10.59060 | -79.27637 | 31856 ft | 488 kts | 4° |
| 2026-04-29 18:33 | 10.65785 | -79.26717 | 31855 ft | 488 kts | 4° |
| 2026-04-29 18:33 | 10.72506 | -79.25799 | 31855 ft | 487 kts | 4° |
| 2026-04-29 18:34 | 10.78088 | -79.25034 | 31855 ft | 487 kts | 4° |
| 2026-04-29 18:34 | 10.85937 | -79.23960 | 31855 ft | 487 kts | 4° |
| 2026-04-29 18:35 | 10.92651 | -79.23044 | 31856 ft | 487 kts | 4° |
| 2026-04-29 18:35 | 10.99365 | -79.22125 | 31856 ft | 487 kts | 4° |
| 2026-04-29 18:36 | 11.06080 | -79.21204 | 31855 ft | 487 kts | 4° |
| 2026-04-29 18:36 | 11.12795 | -79.20280 | 31861 ft | 487 kts | 4° |
| 2026-04-29 18:37 | 11.19528 | -79.19357 | 31859 ft | 488 kts | 4° |
| 2026-04-29 18:37 | 11.26263 | -79.18435 | 31859 ft | 488 kts | 4° |
| 2026-04-29 18:38 | 11.33001 | -79.17512 | 31859 ft | 489 kts | 4° |
| 2026-04-29 18:38 | 11.39735 | -79.16564 | 31860 ft | 489 kts | 4° |
| 2026-04-29 18:39 | 11.46473 | -79.15629 | 31863 ft | 488 kts | 4° |
| 2026-04-29 18:39 | 11.53220 | -79.14709 | 31866 ft | 490 kts | 4° |
| 2026-04-29 18:40 | 11.59975 | -79.13772 | 31861 ft | 490 kts | 4° |
| 2026-04-29 18:40 | 11.66679 | -79.12728 | 31861 ft | 491 kts | 6° |
| 2026-04-29 18:41 | 11.80153 | -79.10342 | 31863 ft | 491 kts | 6° |
| 2026-04-29 18:42 | 11.86891 | -79.09160 | 31863 ft | 491 kts | 6° |
| 2026-04-29 18:42 | 11.93635 | -79.07989 | 31862 ft | 491 kts | 5° |
| 2026-04-29 18:43 | 12.00373 | -79.06813 | 31864 ft | 491 kts | 6° |
| 2026-04-29 18:43 | 12.07116 | -79.05623 | 31861 ft | 491 kts | 6° |
| 2026-04-29 18:44 | 12.13846 | -79.04436 | 31866 ft | 491 kts | 6° |
| 2026-04-29 18:44 | 12.20573 | -79.03252 | 31869 ft | 491 kts | 6° |
| 2026-04-29 18:45 | 12.27303 | -79.02056 | 31867 ft | 491 kts | 6° |
| 2026-04-29 18:45 | 12.34037 | -79.00866 | 31867 ft | 491 kts | 6° |
| 2026-04-29 18:46 | 12.40767 | -78.99678 | 31870 ft | 490 kts | 5° |
| 2026-04-29 18:46 | 12.47492 | -78.98493 | 31870 ft | 490 kts | 5° |
| 2026-04-29 18:47 | 12.54217 | -78.97302 | 31867 ft | 490 kts | 6° |
| 2026-04-29 18:47 | 12.60933 | -78.96109 | 31870 ft | 490 kts | 5° |
| 2026-04-29 18:48 | 12.67649 | -78.94918 | 31867 ft | 490 kts | 5° |
| 2026-04-29 18:48 | 12.74319 | -78.93735 | 31873 ft | 490 kts | 5° |
| 2026-04-29 18:49 | 12.81030 | -78.92541 | 31870 ft | 490 kts | 5° |
| 2026-04-29 18:49 | 12.87746 | -78.91336 | 31877 ft | 490 kts | 5° |
| 2026-04-29 18:50 | 12.94454 | -78.90142 | 31875 ft | 489 kts | 5° |
| 2026-04-29 18:50 | 13.01154 | -78.88948 | 31880 ft | 489 kts | 5° |
| 2026-04-29 18:51 | 13.07853 | -78.87759 | 31876 ft | 489 kts | 5° |
| 2026-04-29 18:51 | 13.14550 | -78.86572 | 31876 ft | 489 kts | 5° |
| 2026-04-29 18:52 | 13.21253 | -78.85381 | 31877 ft | 488 kts | 5° |
| 2026-04-29 18:52 | 13.27945 | -78.84184 | 31885 ft | 487 kts | 5° |
| 2026-04-29 18:53 | 13.34622 | -78.82997 | 31878 ft | 487 kts | 5° |
| 2026-04-29 18:53 | 13.41300 | -78.81809 | 31885 ft | 487 kts | 5° |
| 2026-04-29 18:54 | 13.47977 | -78.80616 | 31879 ft | 487 kts | 5° |
| 2026-04-29 18:54 | 13.54651 | -78.79422 | 31887 ft | 487 kts | 5° |
| 2026-04-29 18:55 | 13.61326 | -78.78220 | 31894 ft | 487 kts | 5° |
| 2026-04-29 18:55 | 13.67988 | -78.77038 | 31879 ft | 485 kts | 5° |
| 2026-04-29 18:56 | 13.74644 | -78.75867 | 31891 ft | 485 kts | 5° |
| 2026-04-29 18:56 | 13.81300 | -78.74677 | 31890 ft | 485 kts | 5° |
| 2026-04-29 18:57 | 13.87911 | -78.73486 | 31893 ft | 485 kts | 5° |
| 2026-04-29 18:57 | 13.94563 | -78.72289 | 31899 ft | 485 kts | 5° |
| 2026-04-29 18:58 | 14.01257 | -78.71076 | 31891 ft | 485 kts | 5° |
| 2026-04-29 18:58 | 14.07860 | -78.69895 | 31893 ft | 485 kts | 5° |
| 2026-04-29 18:59 | 14.14505 | -78.68706 | 31897 ft | 485 kts | 5° |
| 2026-04-29 18:59 | 14.21145 | -78.67515 | 31890 ft | 484 kts | 5° |
| 2026-04-29 19:00 | 14.27783 | -78.66320 | 31905 ft | 484 kts | 5° |
| 2026-04-29 19:00 | 14.34421 | -78.65119 | 31896 ft | 484 kts | 5° |
| 2026-04-29 19:01 | 14.41062 | -78.63930 | 31896 ft | 484 kts | 5° |
| 2026-04-29 19:01 | 14.47701 | -78.62742 | 31899 ft | 484 kts | 5° |
| 2026-04-29 19:02 | 14.53217 | -78.61750 | 31893 ft | 484 kts | 5° |
| 2026-04-29 19:02 | 14.60977 | -78.60350 | 31897 ft | 484 kts | 5° |
| 2026-04-29 19:03 | 14.67613 | -78.59157 | 31909 ft | 484 kts | 5° |
| 2026-04-29 19:03 | 14.74248 | -78.57963 | 31906 ft | 484 kts | 5° |
| 2026-04-29 19:04 | 14.80885 | -78.56758 | 31902 ft | 484 kts | 5° |
| 2026-04-29 19:04 | 14.87519 | -78.55559 | 31903 ft | 484 kts | 5° |
| 2026-04-29 19:05 | 14.94155 | -78.54361 | 31907 ft | 484 kts | 5° |
| 2026-04-29 19:05 | 15.00791 | -78.53162 | 31917 ft | 484 kts | 5° |
| 2026-04-29 19:06 | 15.07455 | -78.52021 | 31911 ft | 485 kts | 4° |
| 2026-04-29 19:07 | 15.17412 | -78.50331 | 31909 ft | 486 kts | 4° |
| 2026-04-29 19:07 | 15.24077 | -78.49182 | 31909 ft | 486 kts | 4° |
| 2026-04-29 19:08 | 15.30745 | -78.48037 | 31910 ft | 486 kts | 4° |
| 2026-04-29 19:08 | 15.37414 | -78.46895 | 31920 ft | 485 kts | 4° |
| 2026-04-29 19:09 | 15.44073 | -78.45753 | 31913 ft | 485 kts | 4° |
| 2026-04-29 19:09 | 15.50731 | -78.44611 | 31916 ft | 485 kts | 4° |
| 2026-04-29 19:10 | 15.57388 | -78.43469 | 31917 ft | 485 kts | 4° |
| 2026-04-29 19:10 | 15.64046 | -78.42325 | 31917 ft | 485 kts | 4° |
| 2026-04-29 19:11 | 15.70705 | -78.41179 | 31927 ft | 485 kts | 4° |
| 2026-04-29 19:11 | 15.77358 | -78.40039 | 31917 ft | 485 kts | 4° |
| 2026-04-29 19:12 | 15.84012 | -78.38894 | 31918 ft | 485 kts | 4° |
| 2026-04-29 19:12 | 15.90663 | -78.37749 | 31917 ft | 484 kts | 4° |
| 2026-04-29 19:13 | 15.97311 | -78.36604 | 31917 ft | 484 kts | 4° |
| 2026-04-29 19:13 | 16.03957 | -78.35461 | 31932 ft | 484 kts | 4° |
| 2026-04-29 19:14 | 16.10600 | -78.34311 | 31921 ft | 484 kts | 3° |
| 2026-04-29 19:14 | 16.17240 | -78.33162 | 31929 ft | 484 kts | 3° |
| 2026-04-29 19:15 | 16.23884 | -78.32008 | 31923 ft | 484 kts | 3° |
| 2026-04-29 19:15 | 16.30528 | -78.30860 | 31927 ft | 484 kts | 3° |
| 2026-04-29 19:16 | 16.36048 | -78.29905 | 31921 ft | 484 kts | 3° |
| 2026-04-29 19:16 | 16.42693 | -78.28749 | 31932 ft | 484 kts | 3° |
| 2026-04-29 19:17 | 16.49336 | -78.27597 | 31926 ft | 484 kts | 3° |
| 2026-04-29 19:17 | 16.55984 | -78.26455 | 31925 ft | 484 kts | 3° |
| 2026-04-29 19:18 | 16.62633 | -78.25321 | 31927 ft | 484 kts | 3° |
| 2026-04-29 19:18 | 16.69277 | -78.24159 | 31923 ft | 484 kts | 3° |
| 2026-04-29 19:19 | 16.75926 | -78.22998 | 31932 ft | 485 kts | 3° |
| 2026-04-29 19:19 | 16.82539 | -78.21840 | 31930 ft | 485 kts | 3° |
| 2026-04-29 19:20 | 16.89195 | -78.20681 | 31930 ft | 485 kts | 3° |
| 2026-04-29 19:20 | 16.95852 | -78.19518 | 31931 ft | 485 kts | 3° |
| 2026-04-29 19:21 | 17.02509 | -78.18354 | 31932 ft | 485 kts | 3° |
| 2026-04-29 19:21 | 17.09169 | -78.17199 | 31939 ft | 486 kts | 3° |
| 2026-04-29 19:22 | 17.15836 | -78.16035 | 31934 ft | 486 kts | 3° |
| 2026-04-29 19:22 | 17.22504 | -78.14865 | 31933 ft | 486 kts | 3° |
| 2026-04-29 19:23 | 17.29168 | -78.13704 | 31933 ft | 485 kts | 3° |
| 2026-04-29 19:23 | 17.35829 | -78.12541 | 31932 ft | 485 kts | 3° |
| 2026-04-29 19:24 | 17.42490 | -78.11378 | 31944 ft | 486 kts | 3° |
| 2026-04-29 19:24 | 17.49165 | -78.10210 | 31937 ft | 486 kts | 3° |
| 2026-04-29 19:25 | 17.55842 | -78.09038 | 31936 ft | 486 kts | 3° |
| 2026-04-29 19:25 | 17.62521 | -78.07863 | 31936 ft | 486 kts | 3° |
| 2026-04-29 19:26 | 17.69195 | -78.06692 | 31940 ft | 486 kts | 3° |
| 2026-04-29 19:26 | 17.75868 | -78.05515 | 31938 ft | 486 kts | 3° |
| 2026-04-29 19:27 | 17.82545 | -78.04343 | 31936 ft | 486 kts | 3° |
| 2026-04-29 19:27 | 17.89219 | -78.03167 | 31945 ft | 486 kts | 3° |
| 2026-04-29 19:28 | 17.95889 | -78.01995 | 31957 ft | 486 kts | 3° |
| 2026-04-29 19:28 | 18.02558 | -78.00821 | 31958 ft | 486 kts | 3° |
| 2026-04-29 19:29 | 18.09220 | -77.99643 | 31980 ft | 485 kts | 3° |
| 2026-04-29 19:29 | 18.15827 | -77.98478 | 31970 ft | 485 kts | 3° |
| 2026-04-29 19:30 | 18.22487 | -77.97305 | 31955 ft | 485 kts | 3° |
| 2026-04-29 19:30 | 18.29138 | -77.96130 | 31956 ft | 484 kts | 3° |
| 2026-04-29 19:31 | 18.35784 | -77.94953 | 31972 ft | 485 kts | 3° |
| 2026-04-29 19:31 | 18.39119 | -77.94363 | 32150 ft | 486 kts | 3° |
| 2026-04-29 19:31 | 18.42446 | -77.93771 | 32442 ft | 484 kts | 3° |
| 2026-04-29 19:31 | 18.45763 | -77.93182 | 32683 ft | 484 kts | 3° |
| 2026-04-29 19:32 | 18.49081 | -77.92580 | 32893 ft | 485 kts | 5° |
| 2026-04-29 19:32 | 18.52369 | -77.91668 | 33089 ft | 491 kts | 12° |
| 2026-04-29 19:32 | 18.55623 | -77.90566 | 33287 ft | 491 kts | 12° |
| 2026-04-29 19:32 | 18.58872 | -77.89443 | 33495 ft | 492 kts | 12° |
| 2026-04-29 19:33 | 18.62124 | -77.88324 | 33706 ft | 491 kts | 12° |
| 2026-04-29 19:33 | 18.65371 | -77.87209 | 33901 ft | 491 kts | 12° |
| 2026-04-29 19:33 | 18.68625 | -77.86092 | 33982 ft | 492 kts | 12° |
| 2026-04-29 19:34 | 18.75135 | -77.83860 | 33994 ft | 490 kts | 12° |
| 2026-04-29 19:34 | 18.81601 | -77.81645 | 33964 ft | 488 kts | 12° |
| 2026-04-29 19:35 | 18.88067 | -77.79427 | 33966 ft | 488 kts | 12° |
| 2026-04-29 19:35 | 18.94531 | -77.77214 | 33963 ft | 489 kts | 12° |
| 2026-04-29 19:36 | 19.00996 | -77.74994 | 33965 ft | 488 kts | 12° |